Archival Weather

Republic

Farmingdale, New York (KFRG)

Report from: Sunday, February 18, 2024 2:53 PM EST
Current time: Monday, June 24, 2024 6:41 AM EDT

Current weather – Weather history – Daily summaries
Weather forecast

Temperature3.9°C (39.0°F)
Wind chill-1.8°C (28.8°F)
Dew point-8.9°C (16.0°F)
Winds 19 kts (9.8 m/s, 21.9 mph) West (260°)
Wind gusts 28 kts (14.4 m/s, 32.2 mph)
Peak wind 30 kts (15.4 m/s, 34.5 mph) West-Southwest (250°) at 19:00
Visibility10 mi. (16.1 km)
Clouds Sky clear
Altimeter29.77 in.Hg (1008 mB)
Relative humidity39 %
Density altitude-1,118 ft. (-341 m)
Sea-level pressure100.8 kPa (1008 mB, 29.77 in.Hg)
Remarks Automated weather observing station without precipitation discriminator
Flight conditions Visual Meteorological Conditions
Raw dataKFRG 181953Z 26019G28KT 10SM CLR 04/M09 A2977 RMK AO1 PK WND 25030/1900 SLP082 T00391089
An error has occurred. This application may no longer respond until reloaded. Reload 🗙